Time;durP1;ratioP1;P1;durP2;ratioP2;P2;SDS_P1;SDS_P2;PMS_P1;PMS_P2;Temp;Humidity;BMP_temperature;BMP_pressure;BME280_temperature;BME280_humidity;BME280_pressure;Samples;Min_cycle;Max_cycle;Signal;HPM_P1;HPM_P2
2021/04/19 00:00:57;;;;;;;13.77;7.10;;;;;;;;;;5078323;28;20188;-71
2021/04/19 00:03:22;;;;;;;13.43;6.57;;;;;;;;;;5080348;28;20168;-70
2021/04/19 00:05:48;;;;;;;11.30;6.70;;;;;;;;;;5081170;28;20650;-71
2021/04/19 00:08:13;;;;;;;12.33;6.80;;;;;;;;;;5082259;28;20178;-69
2021/04/19 00:10:38;;;;;;;11.77;6.80;;;;;;;;;;5083116;28;20223;-71
2021/04/19 00:13:03;;;;;;;10.00;6.37;;;;;;;;;;5079899;28;20227;-70
2021/04/19 00:15:30;;;;;;;13.50;7.07;;;;;;;;;;5076842;28;20191;-70
2021/04/19 00:17:55;;;;;;;9.83;6.57;;;;;;;;;;5077051;28;20190;-71
2021/04/19 00:20:21;;;;;;;9.63;6.60;;;;;;;;;;5077216;28;20650;-69
2021/04/19 00:22:46;;;;;;;8.47;7.07;;;;;;;;;;5071827;28;20678;-70
2021/04/19 00:25:11;;;;;;;13.43;7.50;;;;;;;;;;5076477;28;20184;-70
2021/04/19 00:27:37;;;;;;;10.50;7.53;;;;;;;;;;5075387;28;20203;-69
2021/04/19 00:30:04;;;;;;;12.07;7.57;;;;;;;;;;5076400;28;20196;-69
2021/04/19 00:32:29;;;;;;;10.07;6.83;;;;;;;;;;5076802;28;20742;-70
2021/04/19 00:34:54;;;;;;;13.47;6.97;;;;;;;;;;5076297;28;20188;-70
2021/04/19 00:37:21;;;;;;;13.37;7.37;;;;;;;;;;5076578;28;20782;-70
2021/04/19 00:39:46;;;;;;;9.80;7.13;;;;;;;;;;5075955;28;20172;-69
2021/04/19 00:42:11;;;;;;;10.97;7.13;;;;;;;;;;5078774;28;20206;-70
2021/04/19 00:44:37;;;;;;;8.63;6.67;;;;;;;;;;5079498;28;20184;-69
2021/04/19 00:47:02;;;;;;;10.17;7.13;;;;;;;;;;5078266;28;20180;-68
2021/04/19 00:49:28;;;;;;;12.40;7.37;;;;;;;;;;5077137;28;20257;-68
2021/04/19 00:51:54;;;;;;;11.83;7.60;;;;;;;;;;5076539;28;20746;-68
2021/04/19 00:54:20;;;;;;;9.50;7.03;;;;;;;;;;5075318;28;20172;-69
2021/04/19 00:56:46;;;;;;;9.80;7.70;;;;;;;;;;5079950;28;20703;-69
2021/04/19 00:59:11;;;;;;;10.60;7.80;;;;;;;;;;5076178;28;20207;-69
2021/04/19 01:01:37;;;;;;;14.17;7.73;;;;;;;;;;5074336;28;20205;-68
2021/04/19 01:04:02;;;;;;;12.90;8.47;;;;;;;;;;5086942;28;20203;-69
2021/04/19 01:06:27;;;;;;;14.83;8.83;;;;;;;;;;5085746;28;20188;-69
2021/04/19 01:08:53;;;;;;;15.33;8.50;;;;;;;;;;5075177;28;20647;-69
2021/04/19 01:11:18;;;;;;;14.47;9.00;;;;;;;;;;5070513;28;20223;-68
2021/04/19 01:13:43;;;;;;;10.30;7.70;;;;;;;;;;5075441;28;20255;-69
2021/04/19 01:16:08;;;;;;;13.83;7.83;;;;;;;;;;5079003;28;20584;-69
2021/04/19 01:18:34;;;;;;;11.13;9.00;;;;;;;;;;5072839;28;20187;-69
2021/04/19 01:20:59;;;;;;;16.17;9.70;;;;;;;;;;5081835;28;20197;-69
2021/04/19 01:23:24;;;;;;;16.47;11.00;;;;;;;;;;5081402;28;20198;-68
2021/04/19 01:25:50;;;;;;;12.67;9.67;;;;;;;;;;5075556;28;20230;-69
2021/04/19 01:28:16;;;;;;;12.90;9.13;;;;;;;;;;5075213;28;20325;-69
2021/04/19 01:30:43;;;;;;;14.93;10.03;;;;;;;;;;5074421;28;20577;-69
2021/04/19 01:33:08;;;;;;;18.90;10.33;;;;;;;;;;5078852;28;20252;-69
2021/04/19 01:35:33;;;;;;;15.13;9.87;;;;;;;;;;5081692;28;20679;-69
2021/04/19 01:37:59;;;;;;;17.03;11.53;;;;;;;;;;5077366;28;20193;-69
2021/04/19 01:40:24;;;;;;;16.37;10.33;;;;;;;;;;5080279;28;20184;-68
2021/04/19 01:42:50;;;;;;;16.43;10.10;;;;;;;;;;5080894;28;20181;-69
2021/04/19 01:45:16;;;;;;;18.13;11.80;;;;;;;;;;5078610;28;20181;-68
2021/04/19 01:47:41;;;;;;;15.43;9.93;;;;;;;;;;5078010;28;20561;-69
2021/04/19 01:50:09;;;;;;;16.87;11.13;;;;;;;;;;5078732;28;20188;-69
2021/04/19 01:52:34;;;;;;;21.07;12.67;;;;;;;;;;5080964;28;20209;-69
2021/04/19 01:54:59;;;;;;;18.53;11.67;;;;;;;;;;5080735;28;20221;-69
2021/04/19 01:57:24;;;;;;;18.23;11.20;;;;;;;;;;5080211;28;20180;-68
2021/04/19 01:59:50;;;;;;;22.33;13.17;;;;;;;;;;5080905;28;20205;-69
2021/04/19 02:02:18;;;;;;;18.17;12.60;;;;;;;;;;5077797;28;20200;-69
2021/04/19 02:04:48;;;;;;;18.40;13.40;;;;;;;;;;5079393;28;20187;-69
2021/04/19 02:07:26;;;;;;;23.27;13.50;;;;;;;;;;5081288;28;20184;-69
2021/04/19 02:10:03;;;;;;;18.40;13.07;;;;;;;;;;5080474;28;20171;-68
2021/04/19 02:12:37;;;;;;;23.37;14.93;;;;;;;;;;5081083;28;20653;-68
2021/04/19 02:15:24;;;;;;;21.00;14.17;;;;;;;;;;5081895;28;20176;-69
2021/04/19 02:17:55;;;;;;;21.23;14.30;;;;;;;;;;5085315;28;20184;-69
2021/04/19 02:20:23;;;;;;;24.07;13.60;;;;;;;;;;5080475;28;20187;-69
2021/04/19 02:22:57;;;;;;;24.90;15.70;;;;;;;;;;5080061;28;20184;-69
2021/04/19 02:25:28;;;;;;;20.67;14.47;;;;;;;;;;5086686;28;20185;-70
2021/04/19 02:28:02;;;;;;;24.20;15.13;;;;;;;;;;5082596;28;20168;-69
2021/04/19 02:30:33;;;;;;;21.33;15.30;;;;;;;;;;5090521;28;20531;-69
2021/04/19 02:32:58;;;;;;;20.80;14.07;;;;;;;;;;5082876;28;20577;-69
2021/04/19 02:35:24;;;;;;;23.03;14.83;;;;;;;;;;5084465;28;20275;-68
2021/04/19 02:37:52;;;;;;;23.93;14.13;;;;;;;;;;5077881;28;20176;-69
2021/04/19 02:40:17;;;;;;;24.03;15.67;;;;;;;;;;5077868;28;20187;-69
2021/04/19 02:42:44;;;;;;;27.93;15.13;;;;;;;;;;5074574;28;20172;-68
2021/04/19 02:45:11;;;;;;;20.30;14.90;;;;;;;;;;5077487;28;20547;-68
2021/04/19 02:47:37;;;;;;;24.27;15.77;;;;;;;;;;5081004;28;20195;-70
2021/04/19 02:50:05;;;;;;;23.50;15.80;;;;;;;;;;5083870;28;20172;-68
2021/04/19 02:52:32;;;;;;;25.53;16.87;;;;;;;;;;5076709;28;20207;-71
2021/04/19 02:54:57;;;;;;;28.47;16.63;;;;;;;;;;5078291;28;20705;-71
2021/04/19 02:57:25;;;;;;;25.00;16.67;;;;;;;;;;5076511;28;20185;-71
2021/04/19 02:59:51;;;;;;;25.23;18.33;;;;;;;;;;5087254;28;20177;-70
2021/04/19 03:02:17;;;;;;;28.47;17.10;;;;;;;;;;5076221;28;20788;-71
2021/04/19 03:04:42;;;;;;;21.80;15.97;;;;;;;;;;5072294;28;20222;-70
2021/04/19 03:07:08;;;;;;;23.03;16.17;;;;;;;;;;5078846;28;20229;-68
2021/04/19 03:09:34;;;;;;;26.00;18.33;;;;;;;;;;5074470;28;20268;-70
2021/04/19 03:12:03;;;;;;;23.60;16.57;;;;;;;;;;5078976;28;20211;-70
2021/04/19 03:14:32;;;;;;;24.30;17.40;;;;;;;;;;5081215;28;20196;-71
2021/04/19 03:17:01;;;;;;;25.57;18.47;;;;;;;;;;5088117;28;20173;-69
2021/04/19 03:19:27;;;;;;;26.67;17.50;;;;;;;;;;5076771;28;20553;-69
2021/04/19 03:21:53;;;;;;;29.87;19.10;;;;;;;;;;5077690;28;20226;-69
2021/04/19 03:24:19;;;;;;;31.00;18.57;;;;;;;;;;5079429;28;20179;-68
2021/04/19 03:26:45;;;;;;;26.83;19.73;;;;;;;;;;5077195;28;20529;-68
2021/04/19 03:29:11;;;;;;;30.63;20.60;;;;;;;;;;5083804;28;20187;-69
2021/04/19 03:31:38;;;;;;;31.40;21.13;;;;;;;;;;5078255;28;20208;-70
2021/04/19 03:34:11;;;;;;;32.60;20.63;;;;;;;;;;5072636;28;20251;-69
2021/04/19 03:36:37;;;;;;;32.30;22.07;;;;;;;;;;5081108;28;20196;-69
2021/04/19 03:39:03;;;;;;;33.57;23.30;;;;;;;;;;5085553;28;20169;-69
2021/04/19 03:41:30;;;;;;;39.70;25.13;;;;;;;;;;5079423;28;20578;-69
2021/04/19 03:43:57;;;;;;;38.20;25.13;;;;;;;;;;5081562;28;20263;-69
2021/04/19 03:46:22;;;;;;;36.23;25.10;;;;;;;;;;5074493;28;20599;-69
2021/04/19 03:48:52;;;;;;;36.97;26.37;;;;;;;;;;5083098;28;20176;-69
2021/04/19 03:51:18;;;;;;;41.33;28.40;;;;;;;;;;5077888;28;20287;-70
2021/04/19 03:53:44;;;;;;;50.00;29.53;;;;;;;;;;5086126;28;20216;-69
2021/04/19 03:56:11;;;;;;;42.83;28.27;;;;;;;;;;5078648;28;20172;-68
2021/04/19 03:58:37;;;;;;;49.57;30.47;;;;;;;;;;5081935;28;20176;-69
2021/04/19 04:01:03;;;;;;;43.43;29.10;;;;;;;;;;5075706;28;20645;-69
2021/04/19 04:03:29;;;;;;;45.23;30.90;;;;;;;;;;5082898;28;20236;-69
2021/04/19 04:05:55;;;;;;;47.87;30.50;;;;;;;;;;5081420;28;20681;-69
2021/04/19 04:08:20;;;;;;;50.60;31.30;;;;;;;;;;5080426;28;20180;-69
2021/04/19 04:10:46;;;;;;;48.17;31.83;;;;;;;;;;5083582;28;20199;-70
2021/04/19 04:13:11;;;;;;;47.63;30.87;;;;;;;;;;5076205;28;20200;-69
2021/04/19 04:15:47;;;;;;;44.90;31.23;;;;;;;;;;5076116;28;20554;-68
2021/04/19 04:18:13;;;;;;;49.87;31.73;;;;;;;;;;5078254;28;20740;-68
2021/04/19 04:20:38;;;;;;;49.20;31.33;;;;;;;;;;5077173;28;20232;-69
2021/04/19 04:23:03;;;;;;;47.40;31.53;;;;;;;;;;5075744;28;20180;-69
2021/04/19 04:25:29;;;;;;;49.23;30.40;;;;;;;;;;5078793;28;20678;-69
2021/04/19 04:27:54;;;;;;;51.70;33.00;;;;;;;;;;5075589;28;20192;-69
2021/04/19 04:30:20;;;;;;;50.37;32.27;;;;;;;;;;5079262;28;20230;-68
2021/04/19 04:32:45;;;;;;;48.30;32.83;;;;;;;;;;5078506;28;20673;-69
2021/04/19 04:35:10;;;;;;;55.93;33.63;;;;;;;;;;5077953;28;20188;-68
2021/04/19 04:37:35;;;;;;;53.83;33.93;;;;;;;;;;5076616;28;20177;-69
2021/04/19 04:40:01;;;;;;;48.00;31.20;;;;;;;;;;5077953;28;20639;-68
2021/04/19 04:42:26;;;;;;;51.87;31.63;;;;;;;;;;5074968;28;20603;-69
2021/04/19 04:44:51;;;;;;;51.77;33.00;;;;;;;;;;5075075;28;20188;-69
2021/04/19 04:47:29;;;;;;;55.90;34.57;;;;;;;;;;5077345;28;20745;-69
2021/04/19 04:50:08;;;;;;;70.13;37.90;;;;;;;;;;5080912;28;20657;-69
2021/04/19 04:52:41;;;;;;;46.77;32.67;;;;;;;;;;5089210;28;20207;-69
2021/04/19 04:55:07;;;;;;;50.90;35.67;;;;;;;;;;5085606;28;20179;-69
2021/04/19 04:57:33;;;;;;;54.50;34.47;;;;;;;;;;5079936;28;20287;-69
2021/04/19 04:59:59;;;;;;;49.47;31.57;;;;;;;;;;5078066;28;20187;-69
2021/04/19 05:02:25;;;;;;;50.03;35.30;;;;;;;;;;5078069;28;20818;-68
2021/04/19 05:04:51;;;;;;;52.83;35.87;;;;;;;;;;5072324;28;20180;-68
2021/04/19 05:07:16;;;;;;;56.60;35.23;;;;;;;;;;5082023;28;20309;-69
2021/04/19 05:09:46;;;;;;;56.23;35.53;;;;;;;;;;5079806;28;20628;-69
2021/04/19 05:12:11;;;;;;;59.10;36.87;;;;;;;;;;5080810;28;20204;-69
2021/04/19 05:14:38;;;;;;;61.03;36.53;;;;;;;;;;5079163;28;20184;-68
2021/04/19 05:17:03;;;;;;;58.33;36.47;;;;;;;;;;5074580;28;20208;-69
2021/04/19 05:19:29;;;;;;;54.13;35.80;;;;;;;;;;5086778;28;20173;-69
2021/04/19 05:21:54;;;;;;;51.40;36.50;;;;;;;;;;5074859;28;20670;-69
2021/04/19 05:24:19;;;;;;;62.67;39.13;;;;;;;;;;5083225;28;20181;-68
2021/04/19 05:26:44;;;;;;;54.60;34.43;;;;;;;;;;5080424;28;20176;-69
2021/04/19 05:29:10;;;;;;;54.47;35.00;;;;;;;;;;5081815;28;20185;-70
2021/04/19 05:31:35;;;;;;;55.97;36.97;;;;;;;;;;5077954;28;20196;-69
2021/04/19 05:34:00;;;;;;;58.00;38.00;;;;;;;;;;5082588;28;21049;-70
2021/04/19 05:36:26;;;;;;;53.60;35.57;;;;;;;;;;5079682;28;20599;-70
2021/04/19 05:38:52;;;;;;;65.70;38.17;;;;;;;;;;5079628;28;20180;-70
2021/04/19 05:41:19;;;;;;;59.70;37.60;;;;;;;;;;5090584;28;20224;-70
2021/04/19 05:43:45;;;;;;;55.57;37.37;;;;;;;;;;5081452;28;20271;-69
2021/04/19 05:46:13;;;;;;;55.67;36.77;;;;;;;;;;5083868;28;20286;-70
2021/04/19 05:48:39;;;;;;;59.83;37.50;;;;;;;;;;5077010;28;20181;-70
2021/04/19 05:51:08;;;;;;;51.50;35.07;;;;;;;;;;5080978;28;20784;-70
2021/04/19 05:53:33;;;;;;;52.33;34.70;;;;;;;;;;5080284;28;20244;-69
2021/04/19 05:56:01;;;;;;;54.53;37.17;;;;;;;;;;5078249;28;20233;-69
2021/04/19 05:58:26;;;;;;;55.13;35.23;;;;;;;;;;5080922;28;20177;-69
2021/04/19 06:00:53;;;;;;;58.63;35.93;;;;;;;;;;5081507;28;20203;-69
2021/04/19 06:03:27;;;;;;;58.63;36.00;;;;;;;;;;5080930;28;20657;-70
2021/04/19 06:06:01;;;;;;;53.33;34.30;;;;;;;;;;5080997;28;20189;-70
2021/04/19 06:08:28;;;;;;;55.60;33.03;;;;;;;;;;5077242;28;20211;-70
2021/04/19 06:11:06;;;;;;;45.63;32.10;;;;;;;;;;5078185;28;20625;-69
2021/04/19 06:13:33;;;;;;;46.27;31.63;;;;;;;;;;5080069;28;21685;-70
2021/04/19 06:15:59;;;;;;;51.00;32.17;;;;;;;;;;5078991;28;20726;-68
2021/04/19 06:18:26;;;;;;;41.40;30.97;;;;;;;;;;5080449;28;20461;-69
2021/04/19 06:20:53;;;;;;;45.23;31.03;;;;;;;;;;5080588;28;20192;-69
2021/04/19 06:23:18;;;;;;;38.17;29.70;;;;;;;;;;5078300;28;20184;-69
2021/04/19 06:25:44;;;;;;;36.93;27.90;;;;;;;;;;5086440;28;20719;-68
2021/04/19 06:28:09;;;;;;;38.43;28.43;;;;;;;;;;5076745;28;20595;-69
2021/04/19 06:30:41;;;;;;;40.20;27.90;;;;;;;;;;5077758;28;20227;-69
2021/04/19 06:33:07;;;;;;;42.27;27.30;;;;;;;;;;5081007;28;20204;-69
2021/04/19 06:35:32;;;;;;;38.73;28.23;;;;;;;;;;5083253;28;20266;-69
2021/04/19 06:37:57;;;;;;;35.97;26.63;;;;;;;;;;5084515;28;20259;-69
2021/04/19 06:40:26;;;;;;;34.73;26.73;;;;;;;;;;5079015;28;20267;-69
2021/04/19 06:42:56;;;;;;;33.10;24.80;;;;;;;;;;5082156;28;20185;-69
2021/04/19 06:45:21;;;;;;;37.57;26.70;;;;;;;;;;5080469;28;20180;-69
2021/04/19 06:47:46;;;;;;;39.70;26.63;;;;;;;;;;5076289;28;20177;-71
2021/04/19 06:50:12;;;;;;;32.63;25.07;;;;;;;;;;5090473;28;20203;-69
2021/04/19 06:52:39;;;;;;;34.30;24.90;;;;;;;;;;5083360;28;20193;-68
2021/04/19 06:55:05;;;;;;;34.63;23.73;;;;;;;;;;5075448;28;20663;-68
2021/04/19 06:57:33;;;;;;;30.87;22.03;;;;;;;;;;5075762;28;20176;-69
2021/04/19 07:00:00;;;;;;;35.87;22.57;;;;;;;;;;5078624;28;20238;-69
2021/04/19 07:02:26;;;;;;;29.20;22.10;;;;;;;;;;5077295;28;20203;-69
2021/04/19 07:04:52;;;;;;;26.90;21.53;;;;;;;;;;5072078;28;20196;-68
2021/04/19 07:07:22;;;;;;;29.00;22.37;;;;;;;;;;5078400;28;20183;-69
2021/04/19 07:09:48;;;;;;;27.53;21.33;;;;;;;;;;5085060;28;20232;-68
2021/04/19 07:12:17;;;;;;;25.10;21.37;;;;;;;;;;5072449;28;20204;-68
2021/04/19 07:14:44;;;;;;;24.97;20.97;;;;;;;;;;5074494;28;20181;-68
2021/04/19 07:17:10;;;;;;;30.03;22.90;;;;;;;;;;5070688;28;20310;-68
2021/04/19 07:19:35;;;;;;;30.57;23.87;;;;;;;;;;5080051;28;20720;-69
2021/04/19 07:22:00;;;;;;;30.07;22.40;;;;;;;;;;5077875;28;20240;-69
2021/04/19 07:24:27;;;;;;;27.10;21.83;;;;;;;;;;5077649;28;20184;-69
2021/04/19 07:26:56;;;;;;;25.40;21.40;;;;;;;;;;5073163;28;20185;-69
2021/04/19 07:29:21;;;;;;;31.87;21.73;;;;;;;;;;5068963;28;20255;-71
2021/04/19 07:31:50;;;;;;;25.87;20.67;;;;;;;;;;5075793;28;20215;-71
2021/04/19 07:34:20;;;;;;;25.67;21.07;;;;;;;;;;5072918;28;20203;-69
2021/04/19 07:36:52;;;;;;;28.57;21.83;;;;;;;;;;5074513;28;20214;-69
2021/04/19 07:39:18;;;;;;;26.43;20.70;;;;;;;;;;5073362;28;20271;-69
2021/04/19 07:41:45;;;;;;;26.37;19.93;;;;;;;;;;5069789;28;20196;-68
2021/04/19 07:44:10;;;;;;;25.93;19.60;;;;;;;;;;5075241;28;20191;-68
2021/04/19 07:46:35;;;;;;;27.03;21.67;;;;;;;;;;5071166;28;20172;-68
2021/04/19 07:49:06;;;;;;;28.87;20.17;;;;;;;;;;5072021;28;20587;-69
2021/04/19 07:51:35;;;;;;;27.73;20.63;;;;;;;;;;5072976;28;20203;-70
2021/04/19 07:54:20;;;;;;;24.67;19.73;;;;;;;;;;5071228;28;20187;-69
2021/04/19 07:56:51;;;;;;;24.50;19.83;;;;;;;;;;5074255;28;20287;-68
2021/04/19 07:59:24;;;;;;;25.23;18.93;;;;;;;;;;5069926;28;20667;-69
2021/04/19 08:01:55;;;;;;;23.60;19.00;;;;;;;;;;5079028;28;20201;-69
2021/04/19 08:04:21;;;;;;;23.43;19.07;;;;;;;;;;5073232;28;20275;-68
2021/04/19 08:06:46;;;;;;;25.43;19.47;;;;;;;;;;5070407;28;20725;-68
2021/04/19 08:09:11;;;;;;;27.57;20.50;;;;;;;;;;5069241;28;20750;-68
2021/04/19 08:11:41;;;;;;;20.87;18.63;;;;;;;;;;5068410;28;20203;-68
2021/04/19 08:14:06;;;;;;;26.23;19.70;;;;;;;;;;5071811;28;20184;-67
2021/04/19 08:16:32;;;;;;;27.93;19.73;;;;;;;;;;5069752;28;20181;-68
2021/04/19 08:19:00;;;;;;;26.13;19.47;;;;;;;;;;5077375;28;20199;-68
2021/04/19 08:21:26;;;;;;;24.40;18.50;;;;;;;;;;5076741;28;20215;-68
2021/04/19 08:23:52;;;;;;;21.20;18.13;;;;;;;;;;5067567;28;20177;-68
2021/04/19 08:26:17;;;;;;;21.43;17.03;;;;;;;;;;5071502;28;20175;-68
2021/04/19 08:28:43;;;;;;;28.30;18.57;;;;;;;;;;5068522;28;20168;-71
2021/04/19 08:31:09;;;;;;;23.63;18.20;;;;;;;;;;5073825;28;20587;-68
2021/04/19 08:33:35;;;;;;;26.38;17.48;;;;;;;;;;5072825;28;20212;-69
2021/04/19 08:36:01;;;;;;;20.27;16.27;;;;;;;;;;5073696;28;20767;-69
2021/04/19 08:38:28;;;;;;;29.67;18.88;;;;;;;;;;5070248;28;20184;-68
2021/04/19 08:40:53;;;;;;;19.80;17.10;;;;;;;;;;5073474;28;20682;-69
2021/04/19 08:43:20;;;;;;;21.35;16.17;;;;;;;;;;5069317;28;20199;-69
2021/04/19 08:45:46;;;;;;;20.55;17.05;;;;;;;;;;5070180;28;20180;-68
2021/04/19 08:48:12;;;;;;;22.80;17.63;;;;;;;;;;5069913;28;20180;-69
2021/04/19 08:50:42;;;;;;;19.45;16.13;;;;;;;;;;5070948;28;20196;-69
2021/04/19 08:53:08;;;;;;;17.02;15.02;;;;;;;;;;5069211;28;20208;-68
2021/04/19 08:55:34;;;;;;;20.73;16.25;;;;;;;;;;5069966;28;20670;-68
2021/04/19 08:58:04;;;;;;;21.23;15.85;;;;;;;;;;5069630;28;20198;-68
2021/04/19 09:00:29;;;;;;;21.08;16.55;;;;;;;;;;5068537;28;20272;-69
2021/04/19 09:02:58;;;;;;;18.75;16.10;;;;;;;;;;5072303;28;20183;-68
2021/04/19 09:05:24;;;;;;;17.58;15.68;;;;;;;;;;5071292;28;20187;-69
2021/04/19 09:07:49;;;;;;;17.92;14.95;;;;;;;;;;5074992;28;20184;-68
2021/04/19 09:10:16;;;;;;;17.88;15.63;;;;;;;;;;5074076;28;20185;-69
2021/04/19 09:12:41;;;;;;;22.30;17.00;;;;;;;;;;5071387;28;20581;-71
2021/04/19 09:15:11;;;;;;;19.38;16.13;;;;;;;;;;5072804;28;20173;-69
2021/04/19 09:17:38;;;;;;;19.00;15.90;;;;;;;;;;5066367;28;20643;-69
2021/04/19 09:20:04;;;;;;;22.88;16.25;;;;;;;;;;5068401;28;20187;-69
2021/04/19 09:22:29;;;;;;;22.48;16.75;;;;;;;;;;5069646;28;20580;-69
2021/04/19 09:25:05;;;;;;;21.20;16.50;;;;;;;;;;5069847;28;20183;-69
2021/04/19 09:27:49;;;;;;;18.45;16.35;;;;;;;;;;5074888;28;20589;-69
2021/04/19 09:30:25;;;;;;;19.80;16.25;;;;;;;;;;5069723;28;20192;-69
2021/04/19 09:33:02;;;;;;;19.42;16.38;;;;;;;;;;5070244;28;20266;-70
2021/04/19 09:35:39;;;;;;;17.52;15.65;;;;;;;;;;5071353;28;20210;-69
2021/04/19 09:38:09;;;;;;;19.50;16.52;;;;;;;;;;5074930;28;20848;-68
2021/04/19 09:40:45;;;;;;;16.77;14.98;;;;;;;;;;5067364;28;20291;-67
2021/04/19 09:43:10;;;;;;;16.38;14.68;;;;;;;;;;5068022;28;20420;-68
2021/04/19 09:45:41;;;;;;;17.65;15.23;;;;;;;;;;5069434;28;20184;-68
2021/04/19 09:48:27;;;;;;;17.38;15.38;;;;;;;;;;5073748;28;20184;-69
2021/04/19 09:51:00;;;;;;;17.77;13.50;;;;;;;;;;5068579;28;20617;-68
2021/04/19 09:53:26;;;;;;;17.15;13.98;;;;;;;;;;5071203;28;20196;-69
2021/04/19 09:55:51;;;;;;;18.23;15.15;;;;;;;;;;5076112;28;20176;-69
2021/04/19 09:58:17;;;;;;;15.10;13.50;;;;;;;;;;5077571;28;20181;-68
2021/04/19 10:00:42;;;;;;;16.55;13.32;;;;;;;;;;5080521;28;20220;-67
2021/04/19 10:03:08;;;;;;;12.88;11.40;;;;;;;;;;5075195;28;21533;-68
2021/04/19 10:05:34;;;;;;;15.82;12.50;;;;;;;;;;5076882;28;20173;-68
2021/04/19 10:08:00;;;;;;;12.05;10.85;;;;;;;;;;5075592;28;20176;-67
2021/04/19 10:10:26;;;;;;;12.00;10.45;;;;;;;;;;5077635;28;20172;-69
2021/04/19 10:12:52;;;;;;;11.07;9.98;;;;;;;;;;5074376;28;20234;-69
2021/04/19 10:15:19;;;;;;;10.65;9.63;;;;;;;;;;5071023;28;20172;-70
2021/04/19 10:17:44;;;;;;;10.90;9.32;;;;;;;;;;5078415;28;20263;-69
2021/04/19 10:20:13;;;;;;;11.77;10.55;;;;;;;;;;5071713;28;20256;-70
2021/04/19 10:22:38;;;;;;;11.63;10.32;;;;;;;;;;5075369;28;20203;-69
2021/04/19 10:25:04;;;;;;;11.07;9.77;;;;;;;;;;5072113;28;20589;-70
2021/04/19 10:27:30;;;;;;;10.15;9.13;;;;;;;;;;5074524;28;20189;-70
2021/04/19 10:30:06;;;;;;;12.57;11.32;;;;;;;;;;5082188;28;20181;-70
2021/04/19 10:32:31;;;;;;;13.38;10.73;;;;;;;;;;5084964;28;20250;-68
2021/04/19 10:34:57;;;;;;;13.07;11.77;;;;;;;;;;5074799;28;20216;-69
2021/04/19 10:37:22;;;;;;;11.40;10.05;;;;;;;;;;5075359;28;20180;-69
2021/04/19 10:39:47;;;;;;;11.70;10.18;;;;;;;;;;5073360;28;20614;-69
2021/04/19 10:42:13;;;;;;;12.05;10.23;;;;;;;;;;5072416;28;20572;-69
2021/04/19 10:44:42;;;;;;;8.57;7.78;;;;;;;;;;5073800;28;20207;-70
2021/04/19 10:47:08;;;;;;;8.35;7.55;;;;;;;;;;5071318;28;20369;-69
2021/04/19 10:49:34;;;;;;;7.60;6.80;;;;;;;;;;5073505;28;20177;-68
2021/04/19 10:52:01;;;;;;;7.38;6.78;;;;;;;;;;5073313;28;20496;-69
2021/04/19 10:54:30;;;;;;;7.78;7.07;;;;;;;;;;5083610;28;20187;-68
2021/04/19 10:56:56;;;;;;;8.15;7.35;;;;;;;;;;5073265;28;20177;-69
2021/04/19 10:59:23;;;;;;;7.60;6.90;;;;;;;;;;5078639;28;20173;-70
2021/04/19 11:01:56;;;;;;;7.35;6.57;;;;;;;;;;5073561;28;20228;-69
2021/04/19 11:04:21;;;;;;;6.63;6.00;;;;;;;;;;5074876;28;20180;-70
2021/04/19 11:06:46;;;;;;;6.47;5.82;;;;;;;;;;5069567;28;20199;-69
2021/04/19 11:09:19;;;;;;;7.30;6.60;;;;;;;;;;5080729;28;20208;-70
2021/04/19 11:11:45;;;;;;;10.05;6.10;;;;;;;;;;5077480;28;20226;-69
2021/04/19 11:14:22;;;;;;;6.93;6.25;;;;;;;;;;5070888;28;20165;-70
2021/04/19 11:16:53;;;;;;;6.70;6.10;;;;;;;;;;5071330;28;21187;-70
2021/04/19 11:19:31;;;;;;;5.88;5.38;;;;;;;;;;5071852;28;20177;-69
2021/04/19 11:21:56;;;;;;;6.32;5.70;;;;;;;;;;5073557;28;20211;-70
2021/04/19 11:24:33;;;;;;;6.63;6.03;;;;;;;;;;5074133;28;20172;-70
2021/04/19 11:27:02;;;;;;;7.47;6.75;;;;;;;;;;5072434;28;20184;-70
2021/04/19 11:29:38;;;;;;;7.22;6.63;;;;;;;;;;5072223;28;20191;-70
2021/04/19 11:32:04;;;;;;;8.27;7.53;;;;;;;;;;5073430;28;20208;-70
2021/04/19 11:34:36;;;;;;;7.72;7.03;;;;;;;;;;5076745;28;20275;-69
2021/04/19 11:37:01;;;;;;;6.50;5.90;;;;;;;;;;5073945;28;20284;-70
2021/04/19 11:39:31;;;;;;;7.38;6.68;;;;;;;;;;5074577;28;20251;-70
2021/04/19 11:41:56;;;;;;;7.78;7.07;;;;;;;;;;5073188;28;20689;-70
2021/04/19 11:44:41;;;;;;;7.23;6.53;;;;;;;;;;5073796;28;20212;-70
2021/04/19 11:47:07;;;;;;;5.10;4.70;;;;;;;;;;5069030;28;20433;-70
2021/04/19 11:49:32;;;;;;;5.88;5.38;;;;;;;;;;5079565;28;20188;-70
2021/04/19 11:51:57;;;;;;;5.73;5.23;;;;;;;;;;5073533;28;20251;-70
2021/04/19 11:54:22;;;;;;;5.60;5.10;;;;;;;;;;5072581;28;20433;-69
2021/04/19 11:56:47;;;;;;;5.67;4.67;;;;;;;;;;5070841;28;20493;-69
2021/04/19 11:59:13;;;;;;;4.87;4.47;;;;;;;;;;5071466;28;20967;-70
2021/04/19 12:01:39;;;;;;;6.10;4.53;;;;;;;;;;5071164;28;20440;-70
2021/04/19 12:04:05;;;;;;;4.95;4.50;;;;;;;;;;5081839;28;20187;-70
2021/04/19 12:06:30;;;;;;;4.93;4.50;;;;;;;;;;5073554;28;20228;-70
2021/04/19 12:08:56;;;;;;;4.60;4.20;;;;;;;;;;5071268;28;20672;-69
2021/04/19 12:11:24;;;;;;;5.05;4.60;;;;;;;;;;5072828;28;20284;-70
2021/04/19 12:14:00;;;;;;;4.95;4.38;;;;;;;;;;5069120;28;20199;-69
2021/04/19 12:16:26;;;;;;;4.68;4.28;;;;;;;;;;5071605;28;20298;-69
2021/04/19 12:18:51;;;;;;;5.05;4.65;;;;;;;;;;5072419;28;20275;-70
2021/04/19 12:21:16;;;;;;;5.07;4.57;;;;;;;;;;5070009;28;20192;-70
2021/04/19 12:23:42;;;;;;;5.10;4.45;;;;;;;;;;5072759;28;20886;-70
2021/04/19 12:26:07;;;;;;;5.25;4.40;;;;;;;;;;5080653;28;20188;-69
2021/04/19 12:28:32;;;;;;;4.40;4.10;;;;;;;;;;5077802;28;20611;-70
2021/04/19 12:30:57;;;;;;;4.57;4.18;;;;;;;;;;5071177;28;20439;-70
2021/04/19 12:33:23;;;;;;;5.45;4.38;;;;;;;;;;5076604;28;20204;-70
2021/04/19 12:35:48;;;;;;;5.07;4.38;;;;;;;;;;5068447;28;20192;-70
2021/04/19 12:38:13;;;;;;;5.25;4.75;;;;;;;;;;5074280;28;20566;-69
2021/04/19 12:40:39;;;;;;;5.03;4.53;;;;;;;;;;5075501;28;20516;-69
2021/04/19 12:43:04;;;;;;;4.80;4.40;;;;;;;;;;5076458;28;20642;-68
2021/04/19 12:45:33;;;;;;;4.68;4.28;;;;;;;;;;5070540;28;20181;-68
2021/04/19 12:47:59;;;;;;;4.75;4.35;;;;;;;;;;5068470;28;20754;-68
2021/04/19 12:50:24;;;;;;;4.68;4.07;;;;;;;;;;5069280;28;20310;-69
2021/04/19 12:52:49;;;;;;;5.20;4.70;;;;;;;;;;5071989;28;20208;-69
2021/04/19 12:55:15;;;;;;;5.20;4.78;;;;;;;;;;5076528;28;20271;-69
2021/04/19 12:57:40;;;;;;;5.03;4.57;;;;;;;;;;5076043;28;20188;-69
2021/04/19 13:00:06;;;;;;;4.70;4.30;;;;;;;;;;5072991;28;20474;-69
2021/04/19 13:02:31;;;;;;;4.97;4.57;;;;;;;;;;5066841;28;20230;-68
2021/04/19 13:04:56;;;;;;;4.90;4.50;;;;;;;;;;5070177;28;20181;-68
2021/04/19 13:07:21;;;;;;;5.40;4.90;;;;;;;;;;5075276;28;20302;-69
2021/04/19 13:09:47;;;;;;;4.50;4.10;;;;;;;;;;5066799;28;20444;-69
2021/04/19 13:12:13;;;;;;;5.95;5.25;;;;;;;;;;5068928;28;20468;-68
2021/04/19 13:14:39;;;;;;;5.15;4.68;;;;;;;;;;5075298;28;20177;-68
2021/04/19 13:17:04;;;;;;;5.65;5.13;;;;;;;;;;5073150;28;20173;-68
2021/04/19 13:19:29;;;;;;;4.97;4.57;;;;;;;;;;5068790;28;20298;-69
2021/04/19 13:21:54;;;;;;;4.87;4.47;;;;;;;;;;5080383;28;20271;-68
2021/04/19 13:24:20;;;;;;;4.80;4.40;;;;;;;;;;5082088;28;20420;-69
2021/04/19 13:26:46;;;;;;;6.05;5.50;;;;;;;;;;5071553;28;20429;-69
2021/04/19 13:29:11;;;;;;;5.43;4.93;;;;;;;;;;5077682;28;20215;-69
2021/04/19 13:31:37;;;;;;;5.70;5.30;;;;;;;;;;5075583;28;20276;-68
2021/04/19 13:34:02;;;;;;;5.93;5.33;;;;;;;;;;5078584;28;20658;-69
2021/04/19 13:36:27;;;;;;;6.38;5.85;;;;;;;;;;5075680;28;20508;-68
2021/04/19 13:38:54;;;;;;;6.57;5.97;;;;;;;;;;5072437;28;20275;-69
2021/04/19 13:41:19;;;;;;;7.00;6.30;;;;;;;;;;5069463;28;20471;-69
2021/04/19 13:43:44;;;;;;;6.40;5.65;;;;;;;;;;5072983;28;20185;-69
2021/04/19 13:46:09;;;;;;;7.80;6.82;;;;;;;;;;5071216;28;20208;-69
2021/04/19 13:48:35;;;;;;;6.93;6.30;;;;;;;;;;5076851;28;20268;-69
2021/04/19 13:51:00;;;;;;;7.00;6.40;;;;;;;;;;5074472;28;21021;-69
2021/04/19 13:53:25;;;;;;;6.68;6.05;;;;;;;;;;5074407;28;20259;-69
2021/04/19 13:55:50;;;;;;;5.93;5.43;;;;;;;;;;5074243;28;20177;-69
2021/04/19 13:58:15;;;;;;;6.85;6.15;;;;;;;;;;5075233;28;20173;-69
2021/04/19 14:00:41;;;;;;;6.70;5.93;;;;;;;;;;5077108;28;20708;-68
2021/04/19 14:03:06;;;;;;;6.40;5.80;;;;;;;;;;5075262;28;20428;-70
2021/04/19 14:05:31;;;;;;;6.47;5.88;;;;;;;;;;5072947;28;20432;-69
2021/04/19 14:07:56;;;;;;;7.05;6.35;;;;;;;;;;5073626;28;20573;-69
2021/04/19 14:10:21;;;;;;;7.93;6.97;;;;;;;;;;5072039;28;20261;-69
2021/04/19 14:12:48;;;;;;;8.10;7.40;;;;;;;;;;5071504;28;20204;-69
2021/04/19 14:15:14;;;;;;;7.85;7.15;;;;;;;;;;5072855;28;20426;-69
2021/04/19 14:17:40;;;;;;;11.60;8.57;;;;;;;;;;5075443;28;20287;-69
2021/04/19 14:20:07;;;;;;;10.05;8.70;;;;;;;;;;5073584;28;20211;-69
2021/04/19 14:22:32;;;;;;;9.25;8.40;;;;;;;;;;5075241;28;20230;-68
2021/04/19 14:24:57;;;;;;;9.88;8.88;;;;;;;;;;5073574;28;20273;-70